SARM/MCS METAR and TAF weather

Enter ICAO airport designator
Station Type Date Time Source
SARM METAR 2021/04/23 23:41 UTC NOAA

SARM 232341Z 02002KT 9999 TS SCT020 FEW050CB OVC100 26/19 Q1011


Station Type Date Time Source
SARM Decoded METAR 2021/04/23 23:41 UTC NOAA

Monte Caseros Aerodrome, Argentina (SARM) 30-16S 057-39W 54M
Apr 23, 2021 - 07:41 PM EDT / 2021.04.23 2341 UTC
Wind: from the NNE (020 degrees) at 2 MPH (2 KT):0
Visibility: greater than 7 mile(s):0
Sky conditions: overcast
Weather: thunder; Cumulonimbus clouds observed
Temperature: 78 F (26 C)
Dew Point: 66 F (19 C)
Relative Humidity: 65%
Pressure (altimeter): 29.85 in. Hg (1011 hPa)
ob: SARM 232341Z 02002KT 9999 TS SCT020 FEW050CB OVC100 26/19 Q1011
cycle: 23

Station Type Date Time Source
SARM TAF UTC NOAA

Error!

Example: see airport list